Time;durP1;ratioP1;P1;durP2;ratioP2;P2;SDS_P1;SDS_P2;PMS_P1;PMS_P2;Temp;Humidity;BMP_temperature;BMP_pressure;BME280_temperature;BME280_humidity;BME280_pressure;Samples;Min_cycle;Max_cycle;Signal;HPM_P1;HPM_P2
2022/06/20 00:01:24;;;;;;;2.90;2.70;;;26.40;57.30;;;;;;5069398;28;20432;-64
2022/06/20 00:03:51;;;;;;;6.50;2.60;;;27.80;58.30;;;;;;5069467;28;20448;-64
2022/06/20 00:06:20;;;;;;;2.70;2.50;;;26.40;57.30;;;;;;5069663;28;20410;-64
2022/06/20 00:08:49;;;;;;;5.07;2.37;;;;;;;;;;5069608;28;20421;-64
2022/06/20 00:11:17;;;;;;;5.40;2.83;;;26.20;57.30;;;;;;5069641;28;20418;-64
2022/06/20 00:13:48;;;;;;;2.40;2.20;;;26.40;56.90;;;;;;5069243;28;20933;-64
2022/06/20 00:16:18;;;;;;;4.13;3.20;;;26.40;56.80;;;;;;5069575;28;20428;-64
2022/06/20 00:18:44;;;;;;;4.60;2.60;;;;;;;;;;5069868;28;20454;-64
2022/06/20 00:21:13;;;;;;;6.50;2.43;;;26.30;66.40;;;;;;5069289;28;20406;-64
2022/06/20 00:23:39;;;;;;;5.80;2.20;;;;;;;;;;5049689;28;20533;-64
2022/06/20 00:26:05;;;;;;;4.23;2.50;;;;;;;;;;5056505;28;20430;-64
2022/06/20 00:28:31;;;;;;;6.30;3.23;;;26.50;83.20;;;;;;5069489;28;20881;-64
2022/06/20 00:30:58;;;;;;;2.93;2.63;;;;;;;;;;5069229;28;20547;-64
2022/06/20 00:33:24;;;;;;;3.27;2.23;;;;;;;;;;5069688;28;20448;-64
2022/06/20 00:35:51;;;;;;;6.57;2.70;;;;;;;;;;5085136;28;20897;-64
2022/06/20 00:38:19;;;;;;;2.50;2.30;;;26.30;57.80;;;;;;5094177;28;20449;-64
2022/06/20 00:40:53;;;;;;;2.57;2.37;;;26.30;57.00;;;;;;5093426;28;20412;-64
2022/06/20 00:43:24;;;;;;;4.77;2.60;;;26.30;57.80;;;;;;5093662;28;20437;-64
2022/06/20 00:45:52;;;;;;;3.70;2.30;;;26.30;57.90;;;;;;5087240;28;20853;-64
2022/06/20 00:48:27;;;;;;;4.20;2.77;;;26.30;58.00;;;;;;5073340;28;20413;-64
2022/06/20 00:50:57;;;;;;;3.87;2.50;;;26.20;79.10;;;;;;5072681;28;20436;-64
2022/06/20 00:53:31;;;;;;;3.63;3.03;;;26.80;63.80;;;;;;5072743;28;20522;-64
2022/06/20 00:56:01;;;;;;;3.13;2.20;;;26.20;58.20;;;;;;5072849;28;20414;-64
2022/06/20 00:58:52;;;;;;;4.60;2.77;;;26.10;83.90;;;;;;5072739;28;20540;-64
2022/06/20 01:01:27;;;;;;;3.27;2.57;;;26.20;58.50;;;;;;5058845;28;20425;-64
2022/06/20 01:03:57;;;;;;;4.03;2.53;;;27.40;59.80;;;;;;5072907;28;20483;-64
2022/06/20 01:06:28;;;;;;;6.27;2.43;;;26.20;59.00;;;;;;5072755;28;20402;-64
2022/06/20 01:09:05;;;;;;;4.80;2.47;;;26.10;58.60;;;;;;5072420;28;20421;-64
2022/06/20 01:11:53;;;;;;;5.23;2.43;;;26.30;60.80;;;;;;5072286;28;20856;-64
2022/06/20 01:14:34;;;;;;;4.80;2.50;;;26.40;58.40;;;;;;5072179;28;20823;-64
2022/06/20 01:17:04;;;;;;;2.93;2.80;;;26.10;59.30;;;;;;5072770;28;20501;-64
2022/06/20 01:19:43;;;;;;;2.17;1.97;;;26.30;72.20;;;;;;5072065;28;20791;-64
2022/06/20 01:22:33;;;;;;;2.53;2.33;;;26.20;58.40;;;;;;5071348;28;20996;-64
2022/06/20 01:25:30;;;;;;;2.67;2.57;;;26.10;58.40;;;;;;5072266;28;20755;-64
2022/06/20 01:27:56;;;;;;;2.50;2.13;;;26.00;84.60;;;;;;5072243;28;20563;-64
2022/06/20 01:30:26;;;;;;;2.70;2.50;;;26.00;82.70;;;;;;5072178;28;20438;-64
2022/06/20 01:32:52;;;;;;;2.27;2.17;;;26.00;67.40;;;;;;5071993;28;20202;-64
2022/06/20 01:38:07;;;;;;;4.33;2.73;;;25.30;59.40;;;;;;5092577;28;20213;-64
2022/06/20 01:40:34;;;;;;;3.73;2.20;;;26.10;59.80;;;;;;5088219;28;20441;-64
2022/06/20 01:43:01;;;;;;;4.70;2.77;;;;;;;;;;5071990;28;21080;-64
2022/06/20 01:48:15;;;;;;;5.13;2.87;;;26.00;81.30;;;;;;5071567;28;20929;-64
2022/06/20 01:50:42;;;;;;;4.63;2.57;;;26.00;60.20;;;;;;5071620;28;20425;-64
2022/06/20 01:53:09;;;;;;;2.50;1.97;;;26.00;60.10;;;;;;5071357;28;20619;-64
2022/06/20 01:55:36;;;;;;;5.00;2.80;;;25.90;60.30;;;;;;5071802;28;20457;-64
2022/06/20 01:58:11;;;;;;;4.73;2.70;;;26.00;59.30;;;;;;5071712;28;20416;-64
2022/06/20 02:00:37;;;;;;;2.77;2.10;;;;;;;;;;5071038;28;20440;-64
2022/06/20 02:03:11;;;;;;;1.80;1.70;;;26.80;60.10;;;;;;5071210;28;20453;-64
2022/06/20 02:05:37;;;;;;;2.40;2.20;;;;;;;;;;5071545;28;20398;-64
2022/06/20 02:08:06;;;;;;;2.60;2.30;;;25.90;61.20;;;;;;5071750;28;20744;-64
2022/06/20 02:10:51;;;;;;;4.70;2.97;;;26.00;61.60;;;;;;5071290;28;20441;-64
2022/06/20 02:13:17;;;;;;;3.87;2.60;;;26.30;61.80;;;;;;5071115;28;20457;-64
2022/06/20 02:15:45;;;;;;;2.93;2.73;;;26.00;75.30;;;;;;5071448;28;20408;-64
2022/06/20 02:18:12;;;;;;;3.40;3.17;;;26.00;62.30;;;;;;5071292;28;20527;-64
2022/06/20 02:20:46;;;;;;;10.70;3.70;;;25.90;62.60;;;;;;5071036;28;20425;-64
2022/06/20 02:23:18;;;;;;;3.80;2.47;;;25.90;60.50;;;;;;5070923;28;20477;-64
2022/06/20 02:25:45;;;;;;;5.27;3.10;;;25.90;61.80;;;;;;5071420;28;20428;-64
2022/06/20 02:28:16;;;;;;;3.97;3.50;;;25.90;63.60;;;;;;5070787;28;20436;-64
2022/06/20 02:30:42;;;;;;;3.97;2.93;;;;;;;;;;5071475;28;20430;-64
2022/06/20 02:33:13;;;;;;;4.40;3.13;;;26.10;70.80;;;;;;5071084;28;20449;-64
2022/06/20 02:35:39;;;;;;;9.40;2.83;;;;;;;;;;5081880;28;20421;-64
2022/06/20 02:38:06;;;;;;;4.63;3.00;;;;;;;;;;5091647;28;20488;-64
2022/06/20 02:40:31;;;;;;;5.70;2.93;;;;;;;;;;5091066;28;20859;-64
2022/06/20 02:43:09;;;;;;;4.63;3.77;;;25.80;61.60;;;;;;5084024;28;20429;-64
2022/06/20 02:45:39;;;;;;;5.50;2.57;;;25.80;72.40;;;;;;5070828;28;20493;-64
2022/06/20 02:48:07;;;;;;;4.17;3.17;;;25.80;70.90;;;;;;5071041;28;20899;-64
2022/06/20 02:50:50;;;;;;;6.20;3.10;;;24.30;59.80;;;;;;5070558;28;20575;-64
2022/06/20 02:53:26;;;;;;;8.20;2.80;;;25.80;60.70;;;;;;5070601;28;20446;-64
2022/06/20 02:55:54;;;;;;;2.53;2.33;;;25.70;73.30;;;;;;5070189;28;20435;-64
2022/06/20 02:58:25;;;;;;;5.13;2.33;;;26.10;62.70;;;;;;5070599;28;20527;-64
2022/06/20 03:01:02;;;;;;;8.97;2.80;;;25.70;59.60;;;;;;5070571;28;20406;-64
2022/06/20 03:03:33;;;;;;;3.60;2.40;;;25.70;59.30;;;;;;5069378;28;20534;-64
2022/06/20 03:05:59;;;;;;;4.27;2.23;;;25.90;80.80;;;;;;5070140;28;20421;-64
2022/06/20 03:08:26;;;;;;;7.43;3.00;;;25.70;59.90;;;;;;5069732;28;20429;-64
2022/06/20 03:10:54;;;;;;;4.57;2.53;;;25.70;61.20;;;;;;5069679;28;20497;-64
2022/06/20 03:13:22;;;;;;;4.50;2.03;;;25.70;60.90;;;;;;5068980;28;20608;-64
2022/06/20 03:15:50;;;;;;;3.00;2.17;;;25.70;60.50;;;;;;5064627;28;20423;-64
2022/06/20 03:18:19;;;;;;;4.97;2.70;;;25.70;60.50;;;;;;5064807;28;20548;-64
2022/06/20 03:20:46;;;;;;;4.27;2.10;;;25.50;59.90;;;;;;5064749;28;20872;-64
2022/06/20 03:23:12;;;;;;;3.33;2.10;;;;;;;;;;5068553;28;20446;-64
2022/06/20 03:25:39;;;;;;;3.50;2.30;;;25.80;88.00;;;;;;5068250;28;20512;-64
2022/06/20 03:28:05;;;;;;;1.90;1.67;;;;;;;;;;5069037;28;20183;-64
2022/06/20 03:30:35;;;;;;;4.23;2.00;;;25.70;57.40;;;;;;5068865;28;20404;-64
2022/06/20 03:33:04;;;;;;;2.53;2.13;;;25.80;59.70;;;;;;5068840;28;20933;-64
2022/06/20 03:35:31;;;;;;;2.23;2.00;;;25.60;59.60;;;;;;5078360;28;20492;-64
2022/06/20 03:38:03;;;;;;;5.40;1.70;;;27.60;60.40;;;;;;5071714;28;20506;-64
2022/06/20 03:40:29;;;;;;;3.30;2.10;;;;;;;;;;5068744;28;20422;-64
2022/06/20 03:42:57;;;;;;;6.10;2.97;;;25.70;58.90;;;;;;5069071;28;20495;-64
2022/06/20 03:45:27;;;;;;;1.63;1.50;;;25.70;58.80;;;;;;5069606;28;20902;-64
2022/06/20 03:48:05;;;;;;;3.77;1.43;;;26.30;59.30;;;;;;5069086;28;20968;-64
2022/06/20 03:50:37;;;;;;;4.20;1.90;;;25.70;58.90;;;;;;5068495;28;20482;-64
2022/06/20 03:53:23;;;;;;;2.90;2.67;;;25.70;59.10;;;;;;5069070;28;20425;-64
2022/06/20 03:56:00;;;;;;;4.30;3.70;;;25.70;59.50;;;;;;5068813;28;20394;-64
2022/06/20 03:58:37;;;;;;;3.50;3.40;;;25.60;63.90;;;;;;5068379;28;20453;-64
2022/06/20 04:04:29;;;;;;;2.77;2.20;;;25.70;58.40;;;;;;5086182;28;20614;-63
2022/06/20 04:07:00;;;;;;;4.43;2.47;;;25.70;56.10;;;;;;5085629;28;20417;-63
2022/06/20 04:13:05;;;;;;;3.30;2.47;;;25.70;55.70;;;;;;5082317;28;20440;-63
2022/06/20 04:15:40;;;;;;;4.43;3.17;;;25.60;58.10;;;;;;5065342;28;20885;-63
2022/06/20 04:18:36;;;;;;;3.63;1.67;;;25.70;55.60;;;;;;5066966;28;20410;-63
2022/06/20 04:21:17;;;;;;;2.50;1.43;;;25.70;55.30;;;;;;5066817;28;20418;-63
2022/06/20 04:23:46;;;;;;;4.40;1.27;;;25.70;80.30;;;;;;5080990;28;20490;-64
2022/06/20 04:26:18;;;;;;;4.83;1.23;;;25.50;67.80;;;;;;5087213;28;20413;-63
2022/06/20 04:28:49;;;;;;;3.23;1.67;;;25.00;61.20;;;;;;5087137;28;20462;-63
2022/06/20 04:31:34;;;;;;;1.10;1.00;;;25.60;57.60;;;;;;5076979;28;20424;-63
2022/06/20 04:34:09;;;;;;;4.43;1.40;;;25.90;57.30;;;;;;5084755;28;20897;-64
2022/06/20 04:36:42;;;;;;;3.83;1.53;;;25.60;55.00;;;;;;5085004;28;20420;-64
2022/06/20 04:39:25;;;;;;;1.73;1.33;;;25.60;55.00;;;;;;5086899;28;20492;-63
2022/06/20 04:42:03;;;;;;;3.13;1.97;;;25.30;61.50;;;;;;5086819;28;20539;-64
2022/06/20 04:44:36;;;;;;;3.10;1.80;;;25.40;61.60;;;;;;5086877;28;20420;-64
2022/06/20 04:47:31;;;;;;;1.20;1.00;;;25.60;63.60;;;;;;5069488;28;20433;-63
2022/06/20 04:49:58;;;;;;;1.23;1.07;;;25.50;56.00;;;;;;5064834;28;20809;-63
2022/06/20 04:52:26;;;;;;;2.10;1.90;;;25.50;57.20;;;;;;5065193;28;20457;-63
2022/06/20 04:54:53;;;;;;;6.43;1.70;;;25.50;65.00;;;;;;5065893;28;20922;-63
2022/06/20 04:57:19;;;;;;;3.23;1.77;;;;;;;;;;5069952;28;20440;-64
2022/06/20 04:59:45;;;;;;;2.53;1.93;;;;;;;;;;5065939;28;20426;-63
2022/06/20 05:02:16;;;;;;;2.90;2.50;;;25.50;57.10;;;;;;5066766;28;20464;-63
2022/06/20 05:04:44;;;;;;;2.20;1.53;;;25.50;56.90;;;;;;5085723;28;20481;-64
2022/06/20 05:07:21;;;;;;;3.90;1.20;;;25.50;55.00;;;;;;5063492;28;20831;-63
2022/06/20 05:09:55;;;;;;;1.67;1.57;;;25.40;77.00;;;;;;5065283;28;20816;-63
2022/06/20 05:12:33;;;;;;;1.70;1.30;;;26.10;62.60;;;;;;5061231;28;20456;-65
2022/06/20 05:15:13;;;;;;;3.00;1.60;;;25.60;83.60;;;;;;5033174;28;20423;-64
2022/06/20 05:17:40;;;;;;;5.57;1.70;;;25.80;57.20;;;;;;5041750;28;20428;-64
2022/06/20 05:20:27;;;;;;;3.53;1.47;;;24.40;56.60;;;;;;5071917;28;20471;-64
2022/06/20 05:22:59;;;;;;;2.20;1.10;;;25.50;57.30;;;;;;5070558;28;20468;-65
2022/06/20 05:25:26;;;;;;;3.10;1.20;;;25.50;67.70;;;;;;5071604;28;20429;-65
2022/06/20 05:28:01;;;;;;;2.17;1.37;;;25.50;55.30;;;;;;5065500;28;20473;-64
2022/06/20 05:30:31;;;;;;;1.40;1.30;;;25.40;57.20;;;;;;5067902;28;20426;-64
2022/06/20 05:33:11;;;;;;;4.30;1.97;;;25.60;64.60;;;;;;5057791;28;20450;-64
2022/06/20 05:36:02;;;;;;;2.80;1.33;;;25.60;61.40;;;;;;5072072;28;20418;-65
2022/06/20 05:38:36;;;;;;;2.70;1.70;;;25.60;68.90;;;;;;5068824;28;20987;-63
2022/06/20 05:41:04;;;;;;;4.47;1.73;;;;;;;;;;5051612;28;20497;-65
2022/06/20 05:43:30;;;;;;;6.73;1.80;;;25.50;57.20;;;;;;5053945;28;20481;-64
2022/06/20 05:46:00;;;;;;;6.43;1.47;;;25.70;57.70;;;;;;5057921;28;20422;-64
2022/06/20 05:48:37;;;;;;;1.23;1.17;;;25.50;57.50;;;;;;5041879;28;20439;-64
2022/06/20 05:51:06;;;;;;;3.20;1.70;;;25.50;57.60;;;;;;5053730;28;20769;-64
2022/06/20 05:53:37;;;;;;;2.60;1.73;;;25.50;57.10;;;;;;5047079;28;20940;-64
